sensor_id;sensor_type;location;lat;lon;timestamp;P1;durP1;ratioP1;P2;durP2;ratioP2
27983;SDS011;15317;50.360;8.726;2023-06-01T00:04:35;5.87;;;3.37;;
27983;SDS011;15317;50.360;8.726;2023-06-01T00:09:44;4.90;;;3.17;;
27983;SDS011;15317;50.360;8.726;2023-06-01T00:14:47;4.60;;;3.23;;
27983;SDS011;15317;50.360;8.726;2023-06-01T00:19:50;6.70;;;3.07;;
27983;SDS011;15317;50.360;8.726;2023-06-01T00:24:56;5.93;;;3.20;;
27983;SDS011;15317;50.360;8.726;2023-06-01T00:29:59;3.90;;;3.00;;
27983;SDS011;15317;50.360;8.726;2023-06-01T00:35:03;4.90;;;3.40;;
27983;SDS011;15317;50.360;8.726;2023-06-01T00:40:08;5.80;;;3.10;;
27983;SDS011;15317;50.360;8.726;2023-06-01T00:45:12;3.97;;;3.10;;
27983;SDS011;15317;50.360;8.726;2023-06-01T00:50:16;5.93;;;3.43;;
27983;SDS011;15317;50.360;8.726;2023-06-01T00:55:21;3.93;;;2.80;;
27983;SDS011;15317;50.360;8.726;2023-06-01T01:00:24;3.97;;;3.20;;
27983;SDS011;15317;50.360;8.726;2023-06-01T01:05:29;5.30;;;3.20;;
27983;SDS011;15317;50.360;8.726;2023-06-01T01:10:36;4.73;;;2.90;;
27983;SDS011;15317;50.360;8.726;2023-06-01T01:15:46;5.33;;;2.90;;
27983;SDS011;15317;50.360;8.726;2023-06-01T01:20:57;5.20;;;3.03;;
27983;SDS011;15317;50.360;8.726;2023-06-01T01:26:12;4.80;;;3.13;;
27983;SDS011;15317;50.360;8.726;2023-06-01T01:31:24;5.57;;;3.10;;
27983;SDS011;15317;50.360;8.726;2023-06-01T01:36:29;3.53;;;3.10;;
27983;SDS011;15317;50.360;8.726;2023-06-01T01:41:33;4.60;;;3.50;;
27983;SDS011;15317;50.360;8.726;2023-06-01T01:46:40;3.10;;;2.80;;
27983;SDS011;15317;50.360;8.726;2023-06-01T01:51:52;4.67;;;3.20;;
27983;SDS011;15317;50.360;8.726;2023-06-01T01:56:59;6.73;;;3.33;;
27983;SDS011;15317;50.360;8.726;2023-06-01T02:02:04;3.83;;;3.43;;
27983;SDS011;15317;50.360;8.726;2023-06-01T02:07:08;3.43;;;3.13;;
27983;SDS011;15317;50.360;8.726;2023-06-01T02:12:12;3.40;;;3.10;;
27983;SDS011;15317;50.360;8.726;2023-06-01T02:17:17;4.17;;;3.03;;
27983;SDS011;15317;50.360;8.726;2023-06-01T02:22:20;3.87;;;3.30;;
27983;SDS011;15317;50.360;8.726;2023-06-01T02:27:24;5.30;;;3.77;;
27983;SDS011;15317;50.360;8.726;2023-06-01T02:32:29;4.27;;;3.60;;
27983;SDS011;15317;50.360;8.726;2023-06-01T02:37:34;3.70;;;3.10;;
27983;SDS011;15317;50.360;8.726;2023-06-01T02:42:37;3.80;;;3.10;;
27983;SDS011;15317;50.360;8.726;2023-06-01T02:47:42;4.00;;;3.40;;
27983;SDS011;15317;50.360;8.726;2023-06-01T02:52:46;5.97;;;3.30;;
27983;SDS011;15317;50.360;8.726;2023-06-01T02:57:51;5.07;;;3.20;;
27983;SDS011;15317;50.360;8.726;2023-06-01T03:02:55;4.13;;;3.37;;
27983;SDS011;15317;50.360;8.726;2023-06-01T03:07:58;5.90;;;3.40;;
27983;SDS011;15317;50.360;8.726;2023-06-01T03:13:02;7.13;;;3.80;;
27983;SDS011;15317;50.360;8.726;2023-06-01T03:18:07;3.60;;;3.30;;
27983;SDS011;15317;50.360;8.726;2023-06-01T03:23:11;5.80;;;3.60;;
27983;SDS011;15317;50.360;8.726;2023-06-01T03:28:14;6.03;;;3.90;;
27983;SDS011;15317;50.360;8.726;2023-06-01T03:33:19;5.10;;;3.90;;
27983;SDS011;15317;50.360;8.726;2023-06-01T03:38:22;6.13;;;3.37;;
27983;SDS011;15317;50.360;8.726;2023-06-01T03:43:26;4.13;;;3.60;;
27983;SDS011;15317;50.360;8.726;2023-06-01T03:48:30;5.70;;;3.47;;
27983;SDS011;15317;50.360;8.726;2023-06-01T03:53:34;4.03;;;3.53;;
27983;SDS011;15317;50.360;8.726;2023-06-01T03:58:37;4.17;;;3.53;;
27983;SDS011;15317;50.360;8.726;2023-06-01T04:03:41;7.03;;;4.00;;
27983;SDS011;15317;50.360;8.726;2023-06-01T04:08:45;5.57;;;3.77;;
27983;SDS011;15317;50.360;8.726;2023-06-01T04:13:51;6.17;;;4.07;;
27983;SDS011;15317;50.360;8.726;2023-06-01T04:18:55;4.37;;;3.73;;
27983;SDS011;15317;50.360;8.726;2023-06-01T04:23:59;4.07;;;3.50;;
27983;SDS011;15317;50.360;8.726;2023-06-01T04:29:02;5.13;;;3.83;;
27983;SDS011;15317;50.360;8.726;2023-06-01T04:34:06;5.07;;;3.50;;
27983;SDS011;15317;50.360;8.726;2023-06-01T04:39:11;6.53;;;3.50;;
27983;SDS011;15317;50.360;8.726;2023-06-01T04:44:14;5.50;;;3.90;;
27983;SDS011;15317;50.360;8.726;2023-06-01T04:49:19;3.77;;;3.30;;
27983;SDS011;15317;50.360;8.726;2023-06-01T04:54:23;7.33;;;3.70;;
27983;SDS011;15317;50.360;8.726;2023-06-01T04:59:26;4.03;;;3.60;;
27983;SDS011;15317;50.360;8.726;2023-06-01T05:04:31;4.57;;;3.50;;
27983;SDS011;15317;50.360;8.726;2023-06-01T05:09:34;5.87;;;3.70;;
27983;SDS011;15317;50.360;8.726;2023-06-01T05:14:37;5.13;;;3.83;;
27983;SDS011;15317;50.360;8.726;2023-06-01T05:19:41;5.40;;;3.60;;
27983;SDS011;15317;50.360;8.726;2023-06-01T05:24:44;5.80;;;3.50;;
27983;SDS011;15317;50.360;8.726;2023-06-01T05:29:47;4.43;;;3.60;;
27983;SDS011;15317;50.360;8.726;2023-06-01T05:34:52;5.17;;;3.63;;
27983;SDS011;15317;50.360;8.726;2023-06-01T05:39:55;5.47;;;4.10;;
27983;SDS011;15317;50.360;8.726;2023-06-01T05:44:58;3.97;;;3.57;;
27983;SDS011;15317;50.360;8.726;2023-06-01T05:50:03;4.53;;;3.77;;
27983;SDS011;15317;50.360;8.726;2023-06-01T05:55:07;6.53;;;3.93;;
27983;SDS011;15317;50.360;8.726;2023-06-01T06:00:10;6.57;;;4.17;;
27983;SDS011;15317;50.360;8.726;2023-06-01T06:05:16;7.00;;;4.07;;
27983;SDS011;15317;50.360;8.726;2023-06-01T06:10:19;4.53;;;3.80;;
27983;SDS011;15317;50.360;8.726;2023-06-01T06:15:22;4.80;;;3.80;;
27983;SDS011;15317;50.360;8.726;2023-06-01T06:20:27;6.10;;;3.67;;
27983;SDS011;15317;50.360;8.726;2023-06-01T06:25:30;5.50;;;3.70;;
27983;SDS011;15317;50.360;8.726;2023-06-01T06:30:33;3.83;;;3.40;;
27983;SDS011;15317;50.360;8.726;2023-06-01T06:35:38;6.13;;;3.70;;
27983;SDS011;15317;50.360;8.726;2023-06-01T06:40:43;4.97;;;3.60;;
27983;SDS011;15317;50.360;8.726;2023-06-01T06:45:46;5.50;;;3.50;;
27983;SDS011;15317;50.360;8.726;2023-06-01T06:50:51;5.00;;;3.30;;
27983;SDS011;15317;50.360;8.726;2023-06-01T06:55:54;4.13;;;3.33;;
27983;SDS011;15317;50.360;8.726;2023-06-01T07:00:57;4.72;;;3.40;;
27983;SDS011;15317;50.360;8.726;2023-06-01T07:06:03;3.97;;;2.95;;
27983;SDS011;15317;50.360;8.726;2023-06-01T07:11:07;5.20;;;3.40;;
27983;SDS011;15317;50.360;8.726;2023-06-01T07:16:10;4.22;;;3.20;;
27983;SDS011;15317;50.360;8.726;2023-06-01T07:21:15;5.55;;;3.45;;
27983;SDS011;15317;50.360;8.726;2023-06-01T07:26:18;6.45;;;3.40;;
27983;SDS011;15317;50.360;8.726;2023-06-01T07:31:21;5.45;;;3.38;;
27983;SDS011;15317;50.360;8.726;2023-06-01T07:36:26;3.95;;;2.83;;
27983;SDS011;15317;50.360;8.726;2023-06-01T07:41:29;4.20;;;2.80;;
27983;SDS011;15317;50.360;8.726;2023-06-01T07:46:32;5.28;;;3.03;;
27983;SDS011;15317;50.360;8.726;2023-06-01T07:51:37;4.95;;;2.90;;
27983;SDS011;15317;50.360;8.726;2023-06-01T07:56:40;4.57;;;3.38;;
27983;SDS011;15317;50.360;8.726;2023-06-01T08:01:44;3.95;;;3.38;;
27983;SDS011;15317;50.360;8.726;2023-06-01T08:06:49;7.57;;;3.10;;
27983;SDS011;15317;50.360;8.726;2023-06-01T08:11:54;9.52;;;3.05;;
27983;SDS011;15317;50.360;8.726;2023-06-01T08:16:57;5.10;;;3.15;;
27983;SDS011;15317;50.360;8.726;2023-06-01T08:22:03;5.47;;;2.72;;
27983;SDS011;15317;50.360;8.726;2023-06-01T08:27:15;5.13;;;3.15;;
27983;SDS011;15317;50.360;8.726;2023-06-01T08:32:19;4.22;;;2.88;;
27983;SDS011;15317;50.360;8.726;2023-06-01T08:37:24;6.82;;;2.85;;
27983;SDS011;15317;50.360;8.726;2023-06-01T08:42:30;4.40;;;2.60;;
27983;SDS011;15317;50.360;8.726;2023-06-01T08:47:37;2.63;;;2.35;;
27983;SDS011;15317;50.360;8.726;2023-06-01T08:52:43;3.70;;;2.67;;
27983;SDS011;15317;50.360;8.726;2023-06-01T08:57:48;3.78;;;2.40;;
27983;SDS011;15317;50.360;8.726;2023-06-01T09:02:51;4.68;;;2.78;;
27983;SDS011;15317;50.360;8.726;2023-06-01T09:07:56;3.08;;;2.50;;
27983;SDS011;15317;50.360;8.726;2023-06-01T09:12:59;4.43;;;2.42;;
27983;SDS011;15317;50.360;8.726;2023-06-01T09:18:06;7.50;;;3.05;;
27983;SDS011;15317;50.360;8.726;2023-06-01T09:23:16;5.93;;;3.40;;
27983;SDS011;15317;50.360;8.726;2023-06-01T09:28:25;6.72;;;4.47;;
27983;SDS011;15317;50.360;8.726;2023-06-01T09:33:29;4.75;;;2.05;;
27983;SDS011;15317;50.360;8.726;2023-06-01T09:38:34;4.68;;;3.05;;
27983;SDS011;15317;50.360;8.726;2023-06-01T09:43:37;3.63;;;2.50;;
27983;SDS011;15317;50.360;8.726;2023-06-01T09:48:46;3.17;;;2.20;;
27983;SDS011;15317;50.360;8.726;2023-06-01T09:53:53;3.10;;;2.10;;
27983;SDS011;15317;50.360;8.726;2023-06-01T09:58:56;5.40;;;2.40;;
27983;SDS011;15317;50.360;8.726;2023-06-01T10:04:01;5.05;;;2.42;;
27983;SDS011;15317;50.360;8.726;2023-06-01T10:09:10;5.10;;;2.50;;
27983;SDS011;15317;50.360;8.726;2023-06-01T10:14:17;5.13;;;2.90;;
27983;SDS011;15317;50.360;8.726;2023-06-01T10:19:21;3.70;;;2.60;;
27983;SDS011;15317;50.360;8.726;2023-06-01T10:24:26;4.50;;;2.60;;
27983;SDS011;15317;50.360;8.726;2023-06-01T10:29:30;6.43;;;2.58;;
27983;SDS011;15317;50.360;8.726;2023-06-01T10:34:38;3.60;;;2.30;;
27983;SDS011;15317;50.360;8.726;2023-06-01T10:39:43;3.53;;;2.40;;
27983;SDS011;15317;50.360;8.726;2023-06-01T10:44:47;5.00;;;2.65;;
27983;SDS011;15317;50.360;8.726;2023-06-01T10:50:06;4.35;;;2.20;;
27983;SDS011;15317;50.360;8.726;2023-06-01T10:55:26;3.58;;;2.50;;
27983;SDS011;15317;50.360;8.726;2023-06-01T11:00:30;3.58;;;2.20;;
27983;SDS011;15317;50.360;8.726;2023-06-01T11:05:42;3.15;;;2.35;;
27983;SDS011;15317;50.360;8.726;2023-06-01T11:10:59;2.85;;;2.50;;
27983;SDS011;15317;50.360;8.726;2023-06-01T11:21:35;4.38;;;1.88;;
27983;SDS011;15317;50.360;8.726;2023-06-01T11:26:42;3.83;;;2.33;;
27983;SDS011;15317;50.360;8.726;2023-06-01T11:31:47;4.85;;;2.35;;
27983;SDS011;15317;50.360;8.726;2023-06-01T11:36:51;5.40;;;2.13;;
27983;SDS011;15317;50.360;8.726;2023-06-01T11:42:05;2.85;;;2.15;;
27983;SDS011;15317;50.360;8.726;2023-06-01T11:47:10;4.00;;;2.22;;
27983;SDS011;15317;50.360;8.726;2023-06-01T11:52:14;2.83;;;2.38;;
27983;SDS011;15317;50.360;8.726;2023-06-01T11:57:19;2.63;;;2.10;;
27983;SDS011;15317;50.360;8.726;2023-06-01T12:02:24;4.30;;;2.17;;
27983;SDS011;15317;50.360;8.726;2023-06-01T12:07:30;4.68;;;2.47;;
27983;SDS011;15317;50.360;8.726;2023-06-01T12:12:35;3.03;;;2.28;;
27983;SDS011;15317;50.360;8.726;2023-06-01T12:17:45;3.35;;;2.72;;
27983;SDS011;15317;50.360;8.726;2023-06-01T12:23:00;3.80;;;2.70;;
27983;SDS011;15317;50.360;8.726;2023-06-01T12:28:07;5.35;;;2.55;;
27983;SDS011;15317;50.360;8.726;2023-06-01T12:33:30;3.42;;;2.10;;
27983;SDS011;15317;50.360;8.726;2023-06-01T12:38:35;3.13;;;2.28;;
27983;SDS011;15317;50.360;8.726;2023-06-01T12:43:43;2.65;;;2.45;;
27983;SDS011;15317;50.360;8.726;2023-06-01T12:48:47;2.30;;;2.10;;
27983;SDS011;15317;50.360;8.726;2023-06-01T12:53:51;3.58;;;2.17;;
27983;SDS011;15317;50.360;8.726;2023-06-01T12:58:56;4.50;;;2.20;;
27983;SDS011;15317;50.360;8.726;2023-06-01T13:03:59;2.55;;;2.35;;
27983;SDS011;15317;50.360;8.726;2023-06-01T13:09:05;3.30;;;2.50;;
27983;SDS011;15317;50.360;8.726;2023-06-01T13:14:10;5.05;;;2.40;;
27983;SDS011;15317;50.360;8.726;2023-06-01T13:19:14;2.90;;;2.05;;
27983;SDS011;15317;50.360;8.726;2023-06-01T13:24:17;4.82;;;2.50;;
27983;SDS011;15317;50.360;8.726;2023-06-01T13:29:22;6.63;;;2.60;;
27983;SDS011;15317;50.360;8.726;2023-06-01T13:34:26;4.30;;;2.60;;
27983;SDS011;15317;50.360;8.726;2023-06-01T13:39:29;4.78;;;2.70;;
27983;SDS011;15317;50.360;8.726;2023-06-01T13:44:34;3.75;;;2.50;;
27983;SDS011;15317;50.360;8.726;2023-06-01T13:49:37;7.03;;;2.53;;
27983;SDS011;15317;50.360;8.726;2023-06-01T13:54:40;3.47;;;2.50;;
27983;SDS011;15317;50.360;8.726;2023-06-01T13:59:45;3.13;;;2.40;;
27983;SDS011;15317;50.360;8.726;2023-06-01T14:04:48;3.13;;;2.40;;
27983;SDS011;15317;50.360;8.726;2023-06-01T14:10:06;4.72;;;2.53;;
27983;SDS011;15317;50.360;8.726;2023-06-01T14:15:16;4.22;;;2.60;;
27983;SDS011;15317;50.360;8.726;2023-06-01T14:20:22;4.15;;;2.47;;
27983;SDS011;15317;50.360;8.726;2023-06-01T14:25:25;4.82;;;2.72;;
27983;SDS011;15317;50.360;8.726;2023-06-01T14:30:31;5.40;;;2.90;;
27983;SDS011;15317;50.360;8.726;2023-06-01T14:35:34;6.60;;;2.50;;
27983;SDS011;15317;50.360;8.726;2023-06-01T14:40:38;3.05;;;2.75;;
27983;SDS011;15317;50.360;8.726;2023-06-01T14:45:43;3.45;;;2.80;;
27983;SDS011;15317;50.360;8.726;2023-06-01T14:50:46;3.03;;;2.80;;
27983;SDS011;15317;50.360;8.726;2023-06-01T14:55:49;4.55;;;3.00;;
27983;SDS011;15317;50.360;8.726;2023-06-01T15:00:54;3.13;;;2.83;;
27983;SDS011;15317;50.360;8.726;2023-06-01T15:05:57;3.20;;;2.92;;
27983;SDS011;15317;50.360;8.726;2023-06-01T15:11:01;4.88;;;3.20;;
27983;SDS011;15317;50.360;8.726;2023-06-01T15:16:07;4.78;;;3.05;;
27983;SDS011;15317;50.360;8.726;2023-06-01T15:21:10;3.42;;;3.05;;
27983;SDS011;15317;50.360;8.726;2023-06-01T15:26:13;7.00;;;4.43;;
27983;SDS011;15317;50.360;8.726;2023-06-01T15:31:20;5.18;;;4.68;;
27983;SDS011;15317;50.360;8.726;2023-06-01T15:36:27;6.22;;;5.53;;
27983;SDS011;15317;50.360;8.726;2023-06-01T15:41:31;6.25;;;5.70;;
27983;SDS011;15317;50.360;8.726;2023-06-01T15:46:46;7.07;;;5.50;;
27983;SDS011;15317;50.360;8.726;2023-06-01T15:51:50;6.63;;;5.80;;
27983;SDS011;15317;50.360;8.726;2023-06-01T15:56:53;6.72;;;5.63;;
27983;SDS011;15317;50.360;8.726;2023-06-01T16:01:59;5.95;;;5.47;;
27983;SDS011;15317;50.360;8.726;2023-06-01T16:07:04;5.70;;;5.22;;
27983;SDS011;15317;50.360;8.726;2023-06-01T16:12:13;5.63;;;5.20;;
27983;SDS011;15317;50.360;8.726;2023-06-01T16:17:29;5.43;;;4.93;;
27983;SDS011;15317;50.360;8.726;2023-06-01T16:22:36;5.40;;;5.00;;
27983;SDS011;15317;50.360;8.726;2023-06-01T16:27:41;5.75;;;5.20;;
27983;SDS011;15317;50.360;8.726;2023-06-01T16:32:45;6.63;;;5.40;;
27983;SDS011;15317;50.360;8.726;2023-06-01T16:37:50;6.65;;;4.72;;
27983;SDS011;15317;50.360;8.726;2023-06-01T16:42:53;5.72;;;5.32;;
27983;SDS011;15317;50.360;8.726;2023-06-01T16:47:58;7.15;;;4.97;;
27983;SDS011;15317;50.360;8.726;2023-06-01T16:53:03;5.32;;;4.82;;
27983;SDS011;15317;50.360;8.726;2023-06-01T16:58:07;7.88;;;5.30;;
27983;SDS011;15317;50.360;8.726;2023-06-01T17:03:11;5.30;;;4.80;;
27983;SDS011;15317;50.360;8.726;2023-06-01T17:08:15;5.18;;;4.72;;
27983;SDS011;15317;50.360;8.726;2023-06-01T17:13:18;7.75;;;5.13;;
27983;SDS011;15317;50.360;8.726;2023-06-01T17:18:23;6.50;;;5.30;;
27983;SDS011;15317;50.360;8.726;2023-06-01T17:23:26;8.25;;;5.43;;
27983;SDS011;15317;50.360;8.726;2023-06-01T17:28:31;8.48;;;5.30;;
27983;SDS011;15317;50.360;8.726;2023-06-01T17:33:35;6.47;;;5.45;;
27983;SDS011;15317;50.360;8.726;2023-06-01T17:38:39;6.28;;;5.65;;
27983;SDS011;15317;50.360;8.726;2023-06-01T17:43:42;7.20;;;5.35;;
27983;SDS011;15317;50.360;8.726;2023-06-01T17:48:47;6.50;;;5.90;;
27983;SDS011;15317;50.360;8.726;2023-06-01T17:53:50;6.50;;;5.70;;
27983;SDS011;15317;50.360;8.726;2023-06-01T17:58:53;6.55;;;5.95;;
27983;SDS011;15317;50.360;8.726;2023-06-01T18:10:21;6.90;;;6.30;;
27983;SDS011;15317;50.360;8.726;2023-06-01T18:15:24;7.00;;;6.30;;
27983;SDS011;15317;50.360;8.726;2023-06-01T18:20:28;7.73;;;6.20;;
27983;SDS011;15317;50.360;8.726;2023-06-01T18:25:35;7.17;;;6.37;;
27983;SDS011;15317;50.360;8.726;2023-06-01T18:30:38;6.70;;;6.20;;
27983;SDS011;15317;50.360;8.726;2023-06-01T18:35:41;6.80;;;6.10;;
27983;SDS011;15317;50.360;8.726;2023-06-01T18:40:46;7.77;;;6.60;;
27983;SDS011;15317;50.360;8.726;2023-06-01T18:45:49;7.47;;;6.77;;
27983;SDS011;15317;50.360;8.726;2023-06-01T18:50:53;7.40;;;6.70;;
27983;SDS011;15317;50.360;8.726;2023-06-01T18:55:57;7.33;;;6.60;;
27983;SDS011;15317;50.360;8.726;2023-06-01T19:01:01;7.07;;;6.57;;
27983;SDS011;15317;50.360;8.726;2023-06-01T19:06:05;8.23;;;7.17;;
27983;SDS011;15317;50.360;8.726;2023-06-01T19:11:10;7.47;;;6.80;;
27983;SDS011;15317;50.360;8.726;2023-06-01T19:16:14;9.93;;;7.70;;
27983;SDS011;15317;50.360;8.726;2023-06-01T19:21:19;8.40;;;7.50;;
27983;SDS011;15317;50.360;8.726;2023-06-01T19:26:25;7.93;;;7.23;;
27983;SDS011;15317;50.360;8.726;2023-06-01T19:31:30;8.23;;;7.43;;
27983;SDS011;15317;50.360;8.726;2023-06-01T19:36:39;8.90;;;8.00;;
27983;SDS011;15317;50.360;8.726;2023-06-01T19:41:52;7.93;;;7.20;;
27983;SDS011;15317;50.360;8.726;2023-06-01T19:46:56;7.77;;;6.97;;
27983;SDS011;15317;50.360;8.726;2023-06-01T19:52:02;8.27;;;7.37;;
27983;SDS011;15317;50.360;8.726;2023-06-01T19:57:08;8.23;;;7.43;;
27983;SDS011;15317;50.360;8.726;2023-06-01T20:02:27;7.80;;;7.10;;
27983;SDS011;15317;50.360;8.726;2023-06-01T20:07:51;8.67;;;7.77;;
27983;SDS011;15317;50.360;8.726;2023-06-01T20:12:57;9.40;;;8.50;;
27983;SDS011;15317;50.360;8.726;2023-06-01T20:18:02;8.60;;;7.90;;
27983;SDS011;15317;50.360;8.726;2023-06-01T20:23:07;8.93;;;8.03;;
27983;SDS011;15317;50.360;8.726;2023-06-01T20:28:13;9.27;;;8.37;;
27983;SDS011;15317;50.360;8.726;2023-06-01T20:33:18;10.33;;;9.23;;
27983;SDS011;15317;50.360;8.726;2023-06-01T20:38:25;10.53;;;9.27;;
27983;SDS011;15317;50.360;8.726;2023-06-01T20:43:30;9.40;;;8.50;;
27983;SDS011;15317;50.360;8.726;2023-06-01T20:48:39;11.03;;;9.33;;
27983;SDS011;15317;50.360;8.726;2023-06-01T20:53:44;9.80;;;8.77;;
27983;SDS011;15317;50.360;8.726;2023-06-01T20:58:50;9.70;;;8.77;;
27983;SDS011;15317;50.360;8.726;2023-06-01T21:03:53;11.07;;;8.67;;
27983;SDS011;15317;50.360;8.726;2023-06-01T21:08:57;10.37;;;9.40;;
27983;SDS011;15317;50.360;8.726;2023-06-01T21:14:03;10.17;;;9.23;;
27983;SDS011;15317;50.360;8.726;2023-06-01T21:19:06;10.13;;;8.90;;
27983;SDS011;15317;50.360;8.726;2023-06-01T21:24:10;10.67;;;9.57;;
27983;SDS011;15317;50.360;8.726;2023-06-01T21:29:15;9.97;;;8.97;;
27983;SDS011;15317;50.360;8.726;2023-06-01T21:34:19;9.90;;;8.83;;
27983;SDS011;15317;50.360;8.726;2023-06-01T21:39:22;9.10;;;8.33;;
27983;SDS011;15317;50.360;8.726;2023-06-01T21:44:27;9.43;;;8.53;;
27983;SDS011;15317;50.360;8.726;2023-06-01T21:49:30;8.63;;;7.70;;
27983;SDS011;15317;50.360;8.726;2023-06-01T21:54:33;7.97;;;7.37;;
27983;SDS011;15317;50.360;8.726;2023-06-01T21:59:38;9.43;;;8.63;;
27983;SDS011;15317;50.360;8.726;2023-06-01T22:04:41;9.10;;;8.20;;
27983;SDS011;15317;50.360;8.726;2023-06-01T22:09:45;9.07;;;8.27;;
27983;SDS011;15317;50.360;8.726;2023-06-01T22:14:50;9.20;;;8.40;;
27983;SDS011;15317;50.360;8.726;2023-06-01T22:19:54;8.77;;;7.97;;
27983;SDS011;15317;50.360;8.726;2023-06-01T22:24:57;8.77;;;8.07;;
27983;SDS011;15317;50.360;8.726;2023-06-01T22:30:02;9.53;;;8.43;;
27983;SDS011;15317;50.360;8.726;2023-06-01T22:35:06;9.43;;;8.73;;
27983;SDS011;15317;50.360;8.726;2023-06-01T22:40:10;10.20;;;9.20;;
27983;SDS011;15317;50.360;8.726;2023-06-01T22:45:15;9.77;;;8.97;;
27983;SDS011;15317;50.360;8.726;2023-06-01T22:50:18;10.07;;;9.37;;
27983;SDS011;15317;50.360;8.726;2023-06-01T22:55:22;9.50;;;8.80;;
27983;SDS011;15317;50.360;8.726;2023-06-01T23:00:27;10.37;;;9.57;;
27983;SDS011;15317;50.360;8.726;2023-06-01T23:05:31;10.70;;;9.80;;
27983;SDS011;15317;50.360;8.726;2023-06-01T23:10:42;11.03;;;10.13;;
27983;SDS011;15317;50.360;8.726;2023-06-01T23:15:52;10.27;;;9.37;;
27983;SDS011;15317;50.360;8.726;2023-06-01T23:20:57;10.13;;;9.23;;
27983;SDS011;15317;50.360;8.726;2023-06-01T23:26:01;10.33;;;9.60;;
27983;SDS011;15317;50.360;8.726;2023-06-01T23:31:06;9.33;;;8.73;;
27983;SDS011;15317;50.360;8.726;2023-06-01T23:36:09;9.80;;;9.00;;
27983;SDS011;15317;50.360;8.726;2023-06-01T23:41:13;9.53;;;8.83;;
27983;SDS011;15317;50.360;8.726;2023-06-01T23:46:18;9.80;;;9.00;;
27983;SDS011;15317;50.360;8.726;2023-06-01T23:51:21;10.73;;;9.83;;
27983;SDS011;15317;50.360;8.726;2023-06-01T23:56:25;10.23;;;9.27;;
